sensor_id;sensor_type;location;lat;lon;timestamp;P1;durP1;ratioP1;P2;durP2;ratioP2
54539;SDS011;40438;52.992;18.604;2022-10-16T00:01:05;42.97;;;20.83;;
54539;SDS011;40438;52.992;18.604;2022-10-16T00:03:32;45.67;;;21.52;;
54539;SDS011;40438;52.992;18.604;2022-10-16T00:05:58;43.72;;;23.08;;
54539;SDS011;40438;52.992;18.604;2022-10-16T00:08:26;43.75;;;21.65;;
54539;SDS011;40438;52.992;18.604;2022-10-16T00:10:57;43.63;;;21.52;;
54539;SDS011;40438;52.992;18.604;2022-10-16T00:13:24;40.15;;;21.10;;
54539;SDS011;40438;52.992;18.604;2022-10-16T00:15:49;41.53;;;20.77;;
54539;SDS011;40438;52.992;18.604;2022-10-16T00:18:15;41.90;;;20.25;;
54539;SDS011;40438;52.992;18.604;2022-10-16T00:20:41;41.90;;;21.38;;
54539;SDS011;40438;52.992;18.604;2022-10-16T00:23:07;43.08;;;21.58;;
54539;SDS011;40438;52.992;18.604;2022-10-16T00:25:34;47.58;;;21.88;;
54539;SDS011;40438;52.992;18.604;2022-10-16T00:27:59;45.30;;;21.02;;
54539;SDS011;40438;52.992;18.604;2022-10-16T00:30:25;42.30;;;20.23;;
54539;SDS011;40438;52.992;18.604;2022-10-16T00:32:51;43.17;;;21.02;;
54539;SDS011;40438;52.992;18.604;2022-10-16T00:35:17;42.47;;;21.10;;
54539;SDS011;40438;52.992;18.604;2022-10-16T00:37:42;44.88;;;22.45;;
54539;SDS011;40438;52.992;18.604;2022-10-16T00:40:08;42.97;;;21.75;;
54539;SDS011;40438;52.992;18.604;2022-10-16T00:42:36;44.50;;;23.27;;
54539;SDS011;40438;52.992;18.604;2022-10-16T00:45:02;42.83;;;22.50;;
54539;SDS011;40438;52.992;18.604;2022-10-16T00:47:30;48.13;;;22.73;;
54539;SDS011;40438;52.992;18.604;2022-10-16T00:49:59;46.67;;;22.48;;
54539;SDS011;40438;52.992;18.604;2022-10-16T00:52:28;46.38;;;23.48;;
54539;SDS011;40438;52.992;18.604;2022-10-16T00:54:53;45.75;;;21.73;;
54539;SDS011;40438;52.992;18.604;2022-10-16T00:57:21;43.83;;;21.65;;
54539;SDS011;40438;52.992;18.604;2022-10-16T00:59:48;45.65;;;22.05;;
54539;SDS011;40438;52.992;18.604;2022-10-16T01:02:15;44.13;;;22.30;;
54539;SDS011;40438;52.992;18.604;2022-10-16T01:04:42;47.13;;;21.27;;
54539;SDS011;40438;52.992;18.604;2022-10-16T01:07:10;45.15;;;21.42;;
54539;SDS011;40438;52.992;18.604;2022-10-16T01:09:43;44.10;;;21.40;;
54539;SDS011;40438;52.992;18.604;2022-10-16T01:12:18;44.08;;;21.42;;
54539;SDS011;40438;52.992;18.604;2022-10-16T01:14:54;43.25;;;21.38;;
54539;SDS011;40438;52.992;18.604;2022-10-16T01:17:26;43.13;;;22.10;;
54539;SDS011;40438;52.992;18.604;2022-10-16T01:20:00;45.85;;;21.40;;
54539;SDS011;40438;52.992;18.604;2022-10-16T01:22:33;43.42;;;21.95;;
54539;SDS011;40438;52.992;18.604;2022-10-16T01:25:09;44.15;;;22.42;;
54539;SDS011;40438;52.992;18.604;2022-10-16T01:30:12;47.60;;;20.70;;
54539;SDS011;40438;52.992;18.604;2022-10-16T01:32:43;41.80;;;20.70;;
54539;SDS011;40438;52.992;18.604;2022-10-16T01:35:17;46.85;;;22.55;;
54539;SDS011;40438;52.992;18.604;2022-10-16T01:37:48;50.07;;;23.43;;
54539;SDS011;40438;52.992;18.604;2022-10-16T01:40:19;43.92;;;21.80;;
54539;SDS011;40438;52.992;18.604;2022-10-16T01:42:52;46.75;;;22.73;;
54539;SDS011;40438;52.992;18.604;2022-10-16T01:45:21;43.85;;;22.55;;
54539;SDS011;40438;52.992;18.604;2022-10-16T01:47:47;45.85;;;21.65;;
54539;SDS011;40438;52.992;18.604;2022-10-16T01:50:15;47.00;;;21.75;;
54539;SDS011;40438;52.992;18.604;2022-10-16T01:52:44;44.75;;;22.10;;
54539;SDS011;40438;52.992;18.604;2022-10-16T01:55:14;44.58;;;21.90;;
54539;SDS011;40438;52.992;18.604;2022-10-16T01:58:44;42.33;;;20.13;;
54539;SDS011;40438;52.992;18.604;2022-10-16T02:01:15;44.67;;;21.95;;
54539;SDS011;40438;52.992;18.604;2022-10-16T02:03:44;44.00;;;21.77;;
54539;SDS011;40438;52.992;18.604;2022-10-16T02:06:14;45.83;;;21.25;;
54539;SDS011;40438;52.992;18.604;2022-10-16T02:08:39;44.92;;;20.98;;
54539;SDS011;40438;52.992;18.604;2022-10-16T02:11:05;47.80;;;21.98;;
54539;SDS011;40438;52.992;18.604;2022-10-16T02:13:34;43.10;;;21.27;;
54539;SDS011;40438;52.992;18.604;2022-10-16T02:16:05;43.13;;;21.15;;
54539;SDS011;40438;52.992;18.604;2022-10-16T02:18:31;44.80;;;22.20;;
54539;SDS011;40438;52.992;18.604;2022-10-16T02:20:58;42.15;;;21.45;;
54539;SDS011;40438;52.992;18.604;2022-10-16T02:23:29;39.33;;;20.83;;
54539;SDS011;40438;52.992;18.604;2022-10-16T02:26:00;44.83;;;21.23;;
54539;SDS011;40438;52.992;18.604;2022-10-16T02:28:31;43.47;;;20.88;;
54539;SDS011;40438;52.992;18.604;2022-10-16T02:31:05;41.83;;;21.70;;
54539;SDS011;40438;52.992;18.604;2022-10-16T02:33:33;43.38;;;21.40;;
54539;SDS011;40438;52.992;18.604;2022-10-16T02:36:01;45.78;;;20.75;;
54539;SDS011;40438;52.992;18.604;2022-10-16T02:38:27;49.22;;;21.98;;
54539;SDS011;40438;52.992;18.604;2022-10-16T02:40:54;40.17;;;19.73;;
54539;SDS011;40438;52.992;18.604;2022-10-16T02:43:20;43.63;;;21.52;;
54539;SDS011;40438;52.992;18.604;2022-10-16T02:45:46;41.80;;;20.05;;
54539;SDS011;40438;52.992;18.604;2022-10-16T02:48:13;42.33;;;19.52;;
54539;SDS011;40438;52.992;18.604;2022-10-16T02:50:39;39.70;;;20.40;;
54539;SDS011;40438;52.992;18.604;2022-10-16T02:53:05;41.38;;;20.80;;
54539;SDS011;40438;52.992;18.604;2022-10-16T02:55:30;48.53;;;20.77;;
54539;SDS011;40438;52.992;18.604;2022-10-16T02:57:56;41.30;;;21.25;;
54539;SDS011;40438;52.992;18.604;2022-10-16T03:00:22;44.55;;;20.98;;
54539;SDS011;40438;52.992;18.604;2022-10-16T03:02:48;46.30;;;21.80;;
54539;SDS011;40438;52.992;18.604;2022-10-16T03:05:15;42.75;;;20.90;;
54539;SDS011;40438;52.992;18.604;2022-10-16T03:07:41;37.45;;;19.80;;
54539;SDS011;40438;52.992;18.604;2022-10-16T03:10:07;40.47;;;21.02;;
54539;SDS011;40438;52.992;18.604;2022-10-16T03:12:33;40.15;;;20.92;;
54539;SDS011;40438;52.992;18.604;2022-10-16T03:14:59;41.38;;;20.38;;
54539;SDS011;40438;52.992;18.604;2022-10-16T03:17:25;40.90;;;19.67;;
54539;SDS011;40438;52.992;18.604;2022-10-16T03:19:51;39.65;;;18.65;;
54539;SDS011;40438;52.992;18.604;2022-10-16T03:22:18;39.92;;;20.10;;
54539;SDS011;40438;52.992;18.604;2022-10-16T03:24:44;37.42;;;19.20;;
54539;SDS011;40438;52.992;18.604;2022-10-16T03:27:09;47.47;;;19.48;;
54539;SDS011;40438;52.992;18.604;2022-10-16T03:29:35;35.53;;;17.85;;
54539;SDS011;40438;52.992;18.604;2022-10-16T03:32:01;42.55;;;18.42;;
54539;SDS011;40438;52.992;18.604;2022-10-16T03:34:28;32.60;;;18.25;;
54539;SDS011;40438;52.992;18.604;2022-10-16T03:36:53;37.00;;;18.75;;
54539;SDS011;40438;52.992;18.604;2022-10-16T03:39:21;37.22;;;18.23;;
54539;SDS011;40438;52.992;18.604;2022-10-16T03:41:46;40.30;;;18.90;;
54539;SDS011;40438;52.992;18.604;2022-10-16T03:44:12;39.88;;;17.27;;
54539;SDS011;40438;52.992;18.604;2022-10-16T03:46:38;36.92;;;18.05;;
54539;SDS011;40438;52.992;18.604;2022-10-16T03:49:04;37.63;;;16.35;;
54539;SDS011;40438;52.992;18.604;2022-10-16T03:51:30;37.47;;;18.90;;
54539;SDS011;40438;52.992;18.604;2022-10-16T03:53:55;35.28;;;17.58;;
54539;SDS011;40438;52.992;18.604;2022-10-16T03:56:22;30.80;;;17.20;;
54539;SDS011;40438;52.992;18.604;2022-10-16T03:58:48;31.13;;;15.77;;
54539;SDS011;40438;52.992;18.604;2022-10-16T04:01:14;37.92;;;18.27;;
54539;SDS011;40438;52.992;18.604;2022-10-16T04:03:40;37.53;;;17.23;;
54539;SDS011;40438;52.992;18.604;2022-10-16T04:06:05;31.90;;;16.77;;
54539;SDS011;40438;52.992;18.604;2022-10-16T04:08:31;30.63;;;16.45;;
54539;SDS011;40438;52.992;18.604;2022-10-16T04:10:57;32.38;;;16.40;;
54539;SDS011;40438;52.992;18.604;2022-10-16T04:13:24;33.30;;;15.70;;
54539;SDS011;40438;52.992;18.604;2022-10-16T04:15:50;30.52;;;15.38;;
54539;SDS011;40438;52.992;18.604;2022-10-16T04:18:15;32.47;;;16.65;;
54539;SDS011;40438;52.992;18.604;2022-10-16T04:20:41;32.92;;;15.80;;
54539;SDS011;40438;52.992;18.604;2022-10-16T04:23:07;32.00;;;15.52;;
54539;SDS011;40438;52.992;18.604;2022-10-16T04:25:33;29.95;;;15.18;;
54539;SDS011;40438;52.992;18.604;2022-10-16T04:27:58;29.13;;;15.65;;
54539;SDS011;40438;52.992;18.604;2022-10-16T04:30:25;29.70;;;14.75;;
54539;SDS011;40438;52.992;18.604;2022-10-16T04:32:51;27.08;;;14.93;;
54539;SDS011;40438;52.992;18.604;2022-10-16T04:35:17;27.05;;;14.30;;
54539;SDS011;40438;52.992;18.604;2022-10-16T04:37:44;28.00;;;14.30;;
54539;SDS011;40438;52.992;18.604;2022-10-16T04:40:09;26.92;;;13.82;;
54539;SDS011;40438;52.992;18.604;2022-10-16T04:42:35;26.13;;;14.88;;
54539;SDS011;40438;52.992;18.604;2022-10-16T04:45:01;26.73;;;13.55;;
54539;SDS011;40438;52.992;18.604;2022-10-16T04:47:29;25.88;;;13.43;;
54539;SDS011;40438;52.992;18.604;2022-10-16T04:49:54;28.20;;;13.70;;
54539;SDS011;40438;52.992;18.604;2022-10-16T04:52:20;23.98;;;12.85;;
54539;SDS011;40438;52.992;18.604;2022-10-16T04:54:46;25.92;;;13.43;;
54539;SDS011;40438;52.992;18.604;2022-10-16T04:57:11;23.20;;;12.52;;
54539;SDS011;40438;52.992;18.604;2022-10-16T04:59:37;21.20;;;12.23;;
54539;SDS011;40438;52.992;18.604;2022-10-16T05:02:03;23.52;;;12.13;;
54539;SDS011;40438;52.992;18.604;2022-10-16T05:04:30;20.80;;;12.40;;
54539;SDS011;40438;52.992;18.604;2022-10-16T05:06:56;20.52;;;10.90;;
54539;SDS011;40438;52.992;18.604;2022-10-16T05:09:21;19.85;;;11.35;;
54539;SDS011;40438;52.992;18.604;2022-10-16T05:11:47;22.58;;;11.05;;
54539;SDS011;40438;52.992;18.604;2022-10-16T05:14:13;23.45;;;11.43;;
54539;SDS011;40438;52.992;18.604;2022-10-16T05:16:39;18.65;;;10.63;;
54539;SDS011;40438;52.992;18.604;2022-10-16T05:19:04;17.10;;;9.82;;
54539;SDS011;40438;52.992;18.604;2022-10-16T05:21:31;18.77;;;10.23;;
54539;SDS011;40438;52.992;18.604;2022-10-16T05:23:57;19.15;;;10.73;;
54539;SDS011;40438;52.992;18.604;2022-10-16T05:26:23;19.63;;;10.18;;
54539;SDS011;40438;52.992;18.604;2022-10-16T05:28:49;19.15;;;10.10;;
54539;SDS011;40438;52.992;18.604;2022-10-16T05:31:15;19.45;;;10.82;;
54539;SDS011;40438;52.992;18.604;2022-10-16T05:33:41;16.42;;;9.18;;
54539;SDS011;40438;52.992;18.604;2022-10-16T05:36:08;17.83;;;9.30;;
54539;SDS011;40438;52.992;18.604;2022-10-16T05:38:36;20.58;;;9.65;;
54539;SDS011;40438;52.992;18.604;2022-10-16T05:41:02;18.42;;;9.73;;
54539;SDS011;40438;52.992;18.604;2022-10-16T05:43:29;15.40;;;9.43;;
54539;SDS011;40438;52.992;18.604;2022-10-16T05:45:55;18.50;;;9.85;;
54539;SDS011;40438;52.992;18.604;2022-10-16T05:48:22;19.25;;;10.05;;
54539;SDS011;40438;52.992;18.604;2022-10-16T05:50:48;15.50;;;9.07;;
54539;SDS011;40438;52.992;18.604;2022-10-16T05:53:21;16.10;;;8.98;;
54539;SDS011;40438;52.992;18.604;2022-10-16T05:55:52;16.45;;;8.55;;
54539;SDS011;40438;52.992;18.604;2022-10-16T05:58:18;19.85;;;9.07;;
54539;SDS011;40438;52.992;18.604;2022-10-16T06:00:44;20.10;;;9.98;;
54539;SDS011;40438;52.992;18.604;2022-10-16T06:03:09;17.58;;;9.98;;
54539;SDS011;40438;52.992;18.604;2022-10-16T06:05:35;16.65;;;9.15;;
54539;SDS011;40438;52.992;18.604;2022-10-16T06:08:01;15.00;;;9.27;;
54539;SDS011;40438;52.992;18.604;2022-10-16T06:10:27;17.13;;;10.00;;
54539;SDS011;40438;52.992;18.604;2022-10-16T06:12:54;17.60;;;9.55;;
54539;SDS011;40438;52.992;18.604;2022-10-16T06:15:19;17.60;;;9.90;;
54539;SDS011;40438;52.992;18.604;2022-10-16T06:17:46;18.73;;;9.68;;
54539;SDS011;40438;52.992;18.604;2022-10-16T06:20:11;17.35;;;9.13;;
54539;SDS011;40438;52.992;18.604;2022-10-16T06:22:37;18.23;;;9.65;;
54539;SDS011;40438;52.992;18.604;2022-10-16T06:25:03;16.95;;;9.57;;
54539;SDS011;40438;52.992;18.604;2022-10-16T06:27:30;16.40;;;9.57;;
54539;SDS011;40438;52.992;18.604;2022-10-16T06:29:57;18.88;;;9.05;;
54539;SDS011;40438;52.992;18.604;2022-10-16T06:32:22;16.15;;;9.27;;
54539;SDS011;40438;52.992;18.604;2022-10-16T06:34:48;18.35;;;9.07;;
54539;SDS011;40438;52.992;18.604;2022-10-16T06:37:14;14.75;;;9.25;;
54539;SDS011;40438;52.992;18.604;2022-10-16T06:39:39;17.60;;;9.02;;
54539;SDS011;40438;52.992;18.604;2022-10-16T06:42:05;15.18;;;9.23;;
54539;SDS011;40438;52.992;18.604;2022-10-16T06:44:34;15.52;;;9.02;;
54539;SDS011;40438;52.992;18.604;2022-10-16T06:47:02;15.23;;;9.00;;
54539;SDS011;40438;52.992;18.604;2022-10-16T06:49:27;14.63;;;8.00;;
54539;SDS011;40438;52.992;18.604;2022-10-16T06:51:53;13.07;;;8.23;;
54539;SDS011;40438;52.992;18.604;2022-10-16T06:54:19;14.43;;;8.10;;
54539;SDS011;40438;52.992;18.604;2022-10-16T06:56:44;12.10;;;7.57;;
54539;SDS011;40438;52.992;18.604;2022-10-16T06:59:10;14.73;;;8.57;;
54539;SDS011;40438;52.992;18.604;2022-10-16T07:01:36;13.73;;;7.53;;
54539;SDS011;40438;52.992;18.604;2022-10-16T07:04:03;13.95;;;8.07;;
54539;SDS011;40438;52.992;18.604;2022-10-16T07:06:30;12.50;;;7.70;;
54539;SDS011;40438;52.992;18.604;2022-10-16T07:08:57;11.38;;;7.07;;
54539;SDS011;40438;52.992;18.604;2022-10-16T07:11:23;10.70;;;6.57;;
54539;SDS011;40438;52.992;18.604;2022-10-16T07:13:49;17.83;;;8.35;;
54539;SDS011;40438;52.992;18.604;2022-10-16T07:16:16;13.57;;;7.78;;
54539;SDS011;40438;52.992;18.604;2022-10-16T07:18:44;16.10;;;8.13;;
54539;SDS011;40438;52.992;18.604;2022-10-16T07:21:12;14.25;;;7.85;;
54539;SDS011;40438;52.992;18.604;2022-10-16T07:23:38;14.07;;;7.05;;
54539;SDS011;40438;52.992;18.604;2022-10-16T07:26:05;13.50;;;7.05;;
54539;SDS011;40438;52.992;18.604;2022-10-16T07:28:31;11.65;;;7.35;;
54539;SDS011;40438;52.992;18.604;2022-10-16T07:31:00;13.13;;;7.43;;
54539;SDS011;40438;52.992;18.604;2022-10-16T07:33:26;9.70;;;7.05;;
54539;SDS011;40438;52.992;18.604;2022-10-16T07:35:52;11.88;;;7.13;;
54539;SDS011;40438;52.992;18.604;2022-10-16T07:38:21;11.23;;;6.63;;
54539;SDS011;40438;52.992;18.604;2022-10-16T07:40:47;10.38;;;6.25;;
54539;SDS011;40438;52.992;18.604;2022-10-16T07:43:13;11.07;;;6.60;;
54539;SDS011;40438;52.992;18.604;2022-10-16T07:45:46;12.30;;;6.95;;
54539;SDS011;40438;52.992;18.604;2022-10-16T07:48:12;11.75;;;6.93;;
54539;SDS011;40438;52.992;18.604;2022-10-16T07:50:38;12.20;;;6.22;;
54539;SDS011;40438;52.992;18.604;2022-10-16T07:53:04;12.25;;;6.63;;
54539;SDS011;40438;52.992;18.604;2022-10-16T07:55:31;13.35;;;6.47;;
54539;SDS011;40438;52.992;18.604;2022-10-16T07:57:56;13.73;;;6.50;;
54539;SDS011;40438;52.992;18.604;2022-10-16T08:00:22;14.40;;;7.05;;
54539;SDS011;40438;52.992;18.604;2022-10-16T08:02:48;10.85;;;5.68;;
54539;SDS011;40438;52.992;18.604;2022-10-16T08:05:14;11.20;;;6.00;;
54539;SDS011;40438;52.992;18.604;2022-10-16T08:07:39;10.32;;;6.05;;
54539;SDS011;40438;52.992;18.604;2022-10-16T08:10:05;13.88;;;6.40;;
54539;SDS011;40438;52.992;18.604;2022-10-16T08:12:33;12.60;;;6.40;;
54539;SDS011;40438;52.992;18.604;2022-10-16T08:14:58;8.23;;;5.47;;
54539;SDS011;40438;52.992;18.604;2022-10-16T08:17:24;14.48;;;7.10;;
54539;SDS011;40438;52.992;18.604;2022-10-16T08:19:50;10.38;;;6.47;;
54539;SDS011;40438;52.992;18.604;2022-10-16T08:22:16;8.95;;;5.75;;
54539;SDS011;40438;52.992;18.604;2022-10-16T08:24:41;8.40;;;5.65;;
54539;SDS011;40438;52.992;18.604;2022-10-16T08:27:07;8.50;;;5.32;;
54539;SDS011;40438;52.992;18.604;2022-10-16T08:29:34;7.45;;;5.30;;
54539;SDS011;40438;52.992;18.604;2022-10-16T08:32:00;9.15;;;4.90;;
54539;SDS011;40438;52.992;18.604;2022-10-16T08:34:26;8.57;;;5.32;;
54539;SDS011;40438;52.992;18.604;2022-10-16T08:36:52;8.75;;;5.10;;
54539;SDS011;40438;52.992;18.604;2022-10-16T08:39:18;8.45;;;5.30;;
54539;SDS011;40438;52.992;18.604;2022-10-16T08:47:43;10.10;;;6.05;;
54539;SDS011;40438;52.992;18.604;2022-10-16T08:50:17;10.10;;;5.60;;
54539;SDS011;40438;52.992;18.604;2022-10-16T08:52:47;7.63;;;5.20;;
54539;SDS011;40438;52.992;18.604;2022-10-16T08:55:17;8.75;;;4.90;;
54539;SDS011;40438;52.992;18.604;2022-10-16T08:57:53;7.65;;;4.88;;
54539;SDS011;40438;52.992;18.604;2022-10-16T09:00:20;10.73;;;5.13;;
54539;SDS011;40438;52.992;18.604;2022-10-16T09:02:49;6.53;;;5.00;;
54539;SDS011;40438;52.992;18.604;2022-10-16T09:07:58;5.88;;;4.18;;
54539;SDS011;40438;52.992;18.604;2022-10-16T09:10:36;8.20;;;4.97;;
54539;SDS011;40438;52.992;18.604;2022-10-16T09:13:13;8.02;;;4.85;;
54539;SDS011;40438;52.992;18.604;2022-10-16T09:15:47;5.95;;;4.63;;
54539;SDS011;40438;52.992;18.604;2022-10-16T09:18:22;8.70;;;4.97;;
54539;SDS011;40438;52.992;18.604;2022-10-16T09:20:53;7.03;;;4.82;;
54539;SDS011;40438;52.992;18.604;2022-10-16T09:23:26;10.13;;;4.85;;
54539;SDS011;40438;52.992;18.604;2022-10-16T09:25:54;8.93;;;5.22;;
54539;SDS011;40438;52.992;18.604;2022-10-16T09:28:22;6.57;;;4.95;;
54539;SDS011;40438;52.992;18.604;2022-10-16T09:30:49;7.68;;;5.38;;
54539;SDS011;40438;52.992;18.604;2022-10-16T09:33:16;8.18;;;5.25;;
54539;SDS011;40438;52.992;18.604;2022-10-16T09:35:44;9.23;;;5.22;;
54539;SDS011;40438;52.992;18.604;2022-10-16T09:38:23;9.35;;;5.43;;
54539;SDS011;40438;52.992;18.604;2022-10-16T09:40:50;7.78;;;5.97;;
54539;SDS011;40438;52.992;18.604;2022-10-16T09:43:19;8.50;;;5.13;;
54539;SDS011;40438;52.992;18.604;2022-10-16T09:45:57;7.55;;;4.80;;
54539;SDS011;40438;52.992;18.604;2022-10-16T09:48:25;6.95;;;4.60;;
54539;SDS011;40438;52.992;18.604;2022-10-16T09:50:56;8.02;;;5.53;;
54539;SDS011;40438;52.992;18.604;2022-10-16T09:53:23;6.30;;;5.15;;
54539;SDS011;40438;52.992;18.604;2022-10-16T09:55:51;8.02;;;5.85;;
54539;SDS011;40438;52.992;18.604;2022-10-16T09:58:18;7.28;;;4.95;;
54539;SDS011;40438;52.992;18.604;2022-10-16T10:00:48;8.75;;;4.82;;
54539;SDS011;40438;52.992;18.604;2022-10-16T10:03:20;9.00;;;4.78;;
54539;SDS011;40438;52.992;18.604;2022-10-16T10:06:05;5.68;;;4.60;;
54539;SDS011;40438;52.992;18.604;2022-10-16T10:08:40;6.80;;;4.55;;
54539;SDS011;40438;52.992;18.604;2022-10-16T10:11:06;8.48;;;4.82;;
54539;SDS011;40438;52.992;18.604;2022-10-16T10:13:32;6.95;;;4.57;;
54539;SDS011;40438;52.992;18.604;2022-10-16T10:15:57;7.68;;;4.60;;
54539;SDS011;40438;52.992;18.604;2022-10-16T10:18:24;7.07;;;4.97;;
54539;SDS011;40438;52.992;18.604;2022-10-16T10:20:57;5.90;;;4.28;;
54539;SDS011;40438;52.992;18.604;2022-10-16T10:23:24;8.27;;;4.80;;
54539;SDS011;40438;52.992;18.604;2022-10-16T10:25:51;5.95;;;4.32;;
54539;SDS011;40438;52.992;18.604;2022-10-16T10:28:38;6.93;;;4.65;;
54539;SDS011;40438;52.992;18.604;2022-10-16T10:31:17;5.97;;;4.35;;
54539;SDS011;40438;52.992;18.604;2022-10-16T10:33:48;8.15;;;4.40;;
54539;SDS011;40438;52.992;18.604;2022-10-16T10:36:22;6.55;;;4.05;;
54539;SDS011;40438;52.992;18.604;2022-10-16T10:38:56;6.40;;;4.32;;
54539;SDS011;40438;52.992;18.604;2022-10-16T10:44:26;6.82;;;4.18;;
54539;SDS011;40438;52.992;18.604;2022-10-16T10:47:04;6.53;;;3.72;;
54539;SDS011;40438;52.992;18.604;2022-10-16T10:49:42;5.85;;;3.53;;
54539;SDS011;40438;52.992;18.604;2022-10-16T10:55:10;5.15;;;3.42;;
54539;SDS011;40438;52.992;18.604;2022-10-16T10:57:46;5.43;;;3.55;;
54539;SDS011;40438;52.992;18.604;2022-10-16T11:00:30;6.10;;;4.13;;
54539;SDS011;40438;52.992;18.604;2022-10-16T11:03:08;7.80;;;4.28;;
54539;SDS011;40438;52.992;18.604;2022-10-16T11:05:46;6.90;;;4.05;;
54539;SDS011;40438;52.992;18.604;2022-10-16T11:08:18;6.60;;;4.40;;
54539;SDS011;40438;52.992;18.604;2022-10-16T11:10:49;7.82;;;4.85;;
54539;SDS011;40438;52.992;18.604;2022-10-16T11:13:27;7.30;;;4.95;;
54539;SDS011;40438;52.992;18.604;2022-10-16T11:15:58;5.90;;;3.90;;
54539;SDS011;40438;52.992;18.604;2022-10-16T11:18:30;8.07;;;4.70;;
54539;SDS011;40438;52.992;18.604;2022-10-16T11:21:07;8.93;;;4.88;;
54539;SDS011;40438;52.992;18.604;2022-10-16T11:23:38;5.97;;;4.15;;
54539;SDS011;40438;52.992;18.604;2022-10-16T11:26:11;6.20;;;4.07;;
54539;SDS011;40438;52.992;18.604;2022-10-16T11:28:42;6.82;;;4.70;;
54539;SDS011;40438;52.992;18.604;2022-10-16T11:31:12;8.50;;;6.35;;
54539;SDS011;40438;52.992;18.604;2022-10-16T11:33:41;9.15;;;6.03;;
54539;SDS011;40438;52.992;18.604;2022-10-16T11:36:14;6.55;;;4.65;;
54539;SDS011;40438;52.992;18.604;2022-10-16T11:38:45;6.80;;;4.35;;
54539;SDS011;40438;52.992;18.604;2022-10-16T11:41:19;9.23;;;4.65;;
54539;SDS011;40438;52.992;18.604;2022-10-16T11:43:52;9.77;;;5.20;;
54539;SDS011;40438;52.992;18.604;2022-10-16T11:46:25;8.60;;;5.35;;
54539;SDS011;40438;52.992;18.604;2022-10-16T11:48:54;6.97;;;5.38;;
54539;SDS011;40438;52.992;18.604;2022-10-16T11:51:31;9.82;;;4.82;;
54539;SDS011;40438;52.992;18.604;2022-10-16T11:54:04;7.90;;;4.90;;
54539;SDS011;40438;52.992;18.604;2022-10-16T11:56:40;8.48;;;4.43;;
54539;SDS011;40438;52.992;18.604;2022-10-16T11:59:10;12.02;;;4.97;;
54539;SDS011;40438;52.992;18.604;2022-10-16T12:01:43;9.85;;;5.10;;
54539;SDS011;40438;52.992;18.604;2022-10-16T12:04:14;7.28;;;5.65;;
54539;SDS011;40438;52.992;18.604;2022-10-16T12:06:48;9.95;;;5.40;;
54539;SDS011;40438;52.992;18.604;2022-10-16T12:09:22;7.57;;;5.30;;
54539;SDS011;40438;52.992;18.604;2022-10-16T12:11:51;10.18;;;5.53;;
54539;SDS011;40438;52.992;18.604;2022-10-16T12:14:33;12.45;;;6.78;;
54539;SDS011;40438;52.992;18.604;2022-10-16T12:17:02;8.57;;;5.57;;
54539;SDS011;40438;52.992;18.604;2022-10-16T12:19:29;7.05;;;5.18;;
54539;SDS011;40438;52.992;18.604;2022-10-16T12:21:58;8.38;;;5.22;;
54539;SDS011;40438;52.992;18.604;2022-10-16T12:24:31;9.40;;;5.05;;
54539;SDS011;40438;52.992;18.604;2022-10-16T12:27:00;7.32;;;4.95;;
54539;SDS011;40438;52.992;18.604;2022-10-16T12:29:33;6.53;;;4.57;;
54539;SDS011;40438;52.992;18.604;2022-10-16T12:32:02;5.50;;;4.22;;
54539;SDS011;40438;52.992;18.604;2022-10-16T12:34:34;7.88;;;4.68;;
54539;SDS011;40438;52.992;18.604;2022-10-16T12:37:15;10.30;;;4.38;;
54539;SDS011;40438;52.992;18.604;2022-10-16T12:39:46;10.38;;;5.25;;
54539;SDS011;40438;52.992;18.604;2022-10-16T12:42:20;5.85;;;4.38;;
54539;SDS011;40438;52.992;18.604;2022-10-16T12:44:48;9.20;;;4.93;;
54539;SDS011;40438;52.992;18.604;2022-10-16T12:47:22;8.85;;;6.00;;
54539;SDS011;40438;52.992;18.604;2022-10-16T12:49:49;11.35;;;5.40;;
54539;SDS011;40438;52.992;18.604;2022-10-16T12:52:25;8.23;;;5.03;;
54539;SDS011;40438;52.992;18.604;2022-10-16T12:54:55;7.68;;;4.90;;
54539;SDS011;40438;52.992;18.604;2022-10-16T12:57:26;6.57;;;4.93;;
54539;SDS011;40438;52.992;18.604;2022-10-16T13:00:02;7.15;;;5.10;;
54539;SDS011;40438;52.992;18.604;2022-10-16T13:05:45;9.60;;;5.18;;
54539;SDS011;40438;52.992;18.604;2022-10-16T13:08:25;6.45;;;4.95;;
54539;SDS011;40438;52.992;18.604;2022-10-16T13:11:07;6.22;;;5.20;;
54539;SDS011;40438;52.992;18.604;2022-10-16T13:13:47;7.55;;;4.97;;
54539;SDS011;40438;52.992;18.604;2022-10-16T13:16:25;6.75;;;4.28;;
54539;SDS011;40438;52.992;18.604;2022-10-16T13:19:03;7.57;;;5.05;;
54539;SDS011;40438;52.992;18.604;2022-10-16T13:21:43;10.43;;;4.35;;
54539;SDS011;40438;52.992;18.604;2022-10-16T13:24:18;7.07;;;5.10;;
54539;SDS011;40438;52.992;18.604;2022-10-16T13:26:53;7.10;;;4.80;;
54539;SDS011;40438;52.992;18.604;2022-10-16T13:29:24;6.75;;;5.00;;
54539;SDS011;40438;52.992;18.604;2022-10-16T13:31:55;7.25;;;4.55;;
54539;SDS011;40438;52.992;18.604;2022-10-16T13:34:21;7.03;;;4.20;;
54539;SDS011;40438;52.992;18.604;2022-10-16T13:36:48;10.55;;;4.65;;
54539;SDS011;40438;52.992;18.604;2022-10-16T13:39:21;4.60;;;3.90;;
54539;SDS011;40438;52.992;18.604;2022-10-16T13:41:57;7.13;;;5.15;;
54539;SDS011;40438;52.992;18.604;2022-10-16T13:44:26;5.60;;;4.30;;
54539;SDS011;40438;52.992;18.604;2022-10-16T13:46:57;7.57;;;4.22;;
54539;SDS011;40438;52.992;18.604;2022-10-16T13:49:24;5.38;;;3.67;;
54539;SDS011;40438;52.992;18.604;2022-10-16T13:51:56;4.90;;;3.42;;
54539;SDS011;40438;52.992;18.604;2022-10-16T13:54:24;6.65;;;3.63;;
54539;SDS011;40438;52.992;18.604;2022-10-16T13:56:51;7.18;;;3.75;;
54539;SDS011;40438;52.992;18.604;2022-10-16T13:59:23;9.00;;;3.65;;
54539;SDS011;40438;52.992;18.604;2022-10-16T14:01:51;8.00;;;3.65;;
54539;SDS011;40438;52.992;18.604;2022-10-16T14:04:18;8.20;;;4.78;;
54539;SDS011;40438;52.992;18.604;2022-10-16T14:06:45;6.30;;;4.47;;
54539;SDS011;40438;52.992;18.604;2022-10-16T14:09:14;5.47;;;3.80;;
54539;SDS011;40438;52.992;18.604;2022-10-16T14:11:49;7.63;;;4.20;;
54539;SDS011;40438;52.992;18.604;2022-10-16T14:14:16;7.88;;;5.05;;
54539;SDS011;40438;52.992;18.604;2022-10-16T14:16:43;13.07;;;7.22;;
54539;SDS011;40438;52.992;18.604;2022-10-16T14:19:13;18.38;;;10.00;;
54539;SDS011;40438;52.992;18.604;2022-10-16T14:21:42;11.95;;;7.82;;
54539;SDS011;40438;52.992;18.604;2022-10-16T14:24:12;11.18;;;7.28;;
54539;SDS011;40438;52.992;18.604;2022-10-16T14:26:40;6.82;;;4.47;;
54539;SDS011;40438;52.992;18.604;2022-10-16T14:29:11;10.00;;;6.20;;
54539;SDS011;40438;52.992;18.604;2022-10-16T14:31:39;7.63;;;5.35;;
54539;SDS011;40438;52.992;18.604;2022-10-16T14:34:21;7.05;;;5.18;;
54539;SDS011;40438;52.992;18.604;2022-10-16T14:36:49;9.80;;;5.20;;
54539;SDS011;40438;52.992;18.604;2022-10-16T14:39:17;6.95;;;5.70;;
54539;SDS011;40438;52.992;18.604;2022-10-16T14:41:45;12.57;;;6.85;;
54539;SDS011;40438;52.992;18.604;2022-10-16T14:44:14;10.45;;;6.57;;
54539;SDS011;40438;52.992;18.604;2022-10-16T14:46:42;10.23;;;6.40;;
54539;SDS011;40438;52.992;18.604;2022-10-16T14:49:13;17.73;;;9.27;;
54539;SDS011;40438;52.992;18.604;2022-10-16T14:51:42;17.42;;;9.23;;